Terminal Aerodrome Forecast
Issued by NWS Tampa Bay Area, FL

Home | Current Version | Previous Version | Text Only | Print | Product List | Glossary On
Versions: 1 2 3 4 5 6 7 8 9 10 11 12
000
FTUS42 KTBW 292346
TAFSRQ
TAF
KSRQ 292346Z 3000/3024 05007KT P6SM SCT060
     FM300300 08006KT P6SM SCT250
     FM301400 VRB06KT P6SM FEW030 SCT250
     FM301800 27009KT P6SM SCT050 BKN250=

USA.gov is the U.S. government's official web portal to all federal, state and local government web resources and services.